createdAt,value
2023-01-06T00:01:12.752Z,96104.78
2023-01-06T00:03:39.505Z,96092.31
2023-01-06T00:06:07.984Z,96093.72
2023-01-06T00:08:35.873Z,96094.63
2023-01-06T00:11:10.171Z,96100.13
2023-01-06T00:13:37.326Z,96095.28
2023-01-06T00:16:08.952Z,96085.94
2023-01-06T00:18:35.644Z,96098.47
2023-01-06T00:21:02.566Z,96091.50
2023-01-06T00:23:29.121Z,96088.09
2023-01-06T00:25:55.755Z,96080.00
2023-01-06T00:28:22.403Z,96080.88
2023-01-06T00:30:48.965Z,96074.47
2023-01-06T00:33:15.691Z,96066.41
2023-01-06T00:35:42.264Z,96077.28
2023-01-06T00:38:08.778Z,96075.44
2023-01-06T00:40:36.709Z,96074.13
2023-01-06T00:43:03.759Z,96072.31
2023-01-06T00:45:31.173Z,96067.47
2023-01-06T00:47:57.697Z,96068.84
2023-01-06T00:50:24.340Z,96068.34
2023-01-06T00:52:51.273Z,96067.84
2023-01-06T00:55:17.817Z,96067.31
2023-01-06T00:57:44.344Z,96057.59
2023-01-06T01:00:12.551Z,96056.75
2023-01-06T01:02:39.154Z,96054.38
2023-01-06T01:05:05.959Z,96053.03
2023-01-06T01:07:32.546Z,96049.53
2023-01-06T01:09:59.264Z,96052.53
2023-01-06T01:12:25.859Z,96046.59
2023-01-06T01:14:53.984Z,96037.94
2023-01-06T01:17:24.653Z,96044.03
2023-01-06T01:19:53.002Z,96042.88
2023-01-06T01:22:19.875Z,96043.94
2023-01-06T01:24:46.469Z,96035.81
2023-01-06T01:27:13.615Z,96043.94
2023-01-06T01:29:40.132Z,96042.63
2023-01-06T01:32:07.180Z,96036.41
2023-01-06T01:34:34.153Z,96036.69
2023-01-06T01:37:01.647Z,96037.28
2023-01-06T01:39:29.364Z,96042.19
2023-01-06T01:41:57.236Z,96046.28
2023-01-06T01:45:05.665Z,96044.44
2023-01-06T01:47:38.875Z,96043.13
2023-01-06T01:50:16.984Z,96040.72
2023-01-06T01:52:45.245Z,96034.63
2023-01-06T01:55:12.615Z,96034.03
2023-01-06T01:57:49.140Z,96031.91
2023-01-06T02:00:17.380Z,96029.78
2023-01-06T02:02:44.681Z,96036.88
2023-01-06T02:05:20.235Z,96035.03
2023-01-06T02:07:47.928Z,96032.63
2023-01-06T02:10:18.597Z,96025.38
2023-01-06T02:12:48.792Z,96026.75
2023-01-06T02:15:22.675Z,96025.44
2023-01-06T02:18:03.531Z,96032.22
2023-01-06T02:20:46.691Z,96020.63
2023-01-06T02:23:28.264Z,96021.50
2023-01-06T02:25:55.463Z,96018.56
2023-01-06T02:29:00.246Z,96018.91
2023-01-06T02:31:58.086Z,96013.56
2023-01-06T02:34:30.863Z,96009.66
2023-01-06T02:37:11.066Z,96005.03
2023-01-06T02:40:09.802Z,95995.38
2023-01-06T02:42:42.644Z,96000.31
2023-01-06T02:45:21.730Z,95994.66
2023-01-06T02:48:20.043Z,95989.38
2023-01-06T02:50:56.391Z,95984.31
2023-01-06T02:53:34.489Z,95986.75
2023-01-06T02:56:03.333Z,95988.41
2023-01-06T02:59:00.479Z,95977.13
2023-01-06T03:01:35.829Z,95974.44
2023-01-06T03:04:07.285Z,95964.19
2023-01-06T03:06:36.495Z,95966.94
2023-01-06T03:09:05.492Z,95969.41
2023-01-06T03:11:39.519Z,95976.47
2023-01-06T03:14:35.283Z,95976.78
2023-01-06T03:17:02.714Z,95977.34
2023-01-06T03:19:30.715Z,95978.25
2023-01-06T03:22:00.771Z,95971.75
2023-01-06T03:24:28.780Z,95972.84
2023-01-06T03:26:55.964Z,95978.25
2023-01-06T03:29:23.412Z,95976.16
2023-01-06T03:32:08.878Z,95972.38
2023-01-06T03:35:04.632Z,95972.16
2023-01-06T03:37:48.596Z,95965.41
2023-01-06T03:40:40.126Z,95969.47
2023-01-06T03:43:21.829Z,95963.03
2023-01-06T03:46:15.942Z,95962.50
2023-01-06T03:48:58.239Z,95957.94
2023-01-06T03:51:43.657Z,95969.31
2023-01-06T03:54:35.034Z,95974.44
2023-01-06T03:57:16.761Z,95963.13
2023-01-06T04:00:13.568Z,95969.06
2023-01-06T04:02:41.505Z,95982.31
2023-01-06T04:05:17.003Z,95963.72
2023-01-06T04:07:46.451Z,95963.19
2023-01-06T04:10:16.618Z,95976.97
2023-01-06T04:12:44.351Z,95973.97
2023-01-06T04:15:21.585Z,95975.66
2023-01-06T04:17:49.871Z,95967.81
2023-01-06T04:20:21.597Z,95971.06
2023-01-06T04:22:50.393Z,95970.56
2023-01-06T04:25:17.331Z,95973.81
2023-01-06T04:27:44.575Z,95968.16
2023-01-06T04:30:12.944Z,95966.03
2023-01-06T04:32:39.966Z,95970.88
2023-01-06T04:35:09.013Z,95969.53
2023-01-06T04:37:35.988Z,95976.28
2023-01-06T04:40:02.990Z,95979.53
2023-01-06T04:42:29.783Z,95976.31
2023-01-06T04:44:56.490Z,95975.78
2023-01-06T04:47:23.313Z,95979.84
2023-01-06T04:49:50.185Z,95986.56
2023-01-06T04:52:17.028Z,95985.53
2023-01-06T04:54:43.943Z,95986.06
2023-01-06T04:57:10.835Z,95976.63
2023-01-06T04:59:37.674Z,95988.50
2023-01-06T05:02:04.489Z,95979.34
2023-01-06T05:04:46.613Z,95986.91
2023-01-06T05:07:14.112Z,95982.88
2023-01-06T05:09:40.856Z,95980.72
2023-01-06T05:12:08.003Z,95982.88
2023-01-06T05:14:34.834Z,95985.84
2023-01-06T05:17:01.719Z,95981.00
2023-01-06T05:19:28.453Z,95979.38
2023-01-06T05:21:55.277Z,95985.31
2023-01-06T05:24:22.145Z,95976.72
2023-01-06T05:26:49.280Z,95983.44
2023-01-06T05:29:16.649Z,95978.31
2023-01-06T05:31:43.848Z,95988.56
2023-01-06T05:34:11.740Z,95986.16
2023-01-06T05:36:38.587Z,95985.63
2023-01-06T05:39:05.427Z,95992.91
2023-01-06T05:41:32.237Z,95987.25
2023-01-06T05:43:58.999Z,95991.31
2023-01-06T05:46:25.722Z,95988.88
2023-01-06T05:48:52.586Z,95985.63
2023-01-06T05:51:19.332Z,95984.31
2023-01-06T05:53:48.253Z,95986.44
2023-01-06T05:56:18.030Z,95979.72
2023-01-06T05:58:47.646Z,95974.59
2023-01-06T06:01:22.520Z,95973.25
2023-01-06T06:03:50.266Z,95982.69
2023-01-06T06:06:18.085Z,95979.44
2023-01-06T06:08:45.033Z,95973.81
2023-01-06T06:11:14.676Z,95982.16
2023-01-06T06:13:53.301Z,95988.06
2023-01-06T06:16:23.119Z,95990.25
2023-01-06T06:18:52.078Z,95992.41
2023-01-06T06:21:22.011Z,95991.84
2023-01-06T06:23:49.435Z,95990.50
2023-01-06T06:26:16.643Z,95986.47
2023-01-06T06:28:43.440Z,95989.44
2023-01-06T06:31:13.798Z,95996.97
2023-01-06T06:33:41.001Z,95989.16
2023-01-06T06:36:08.832Z,95986.75
2023-01-06T06:38:35.764Z,95981.88
2023-01-06T06:41:02.697Z,95984.84
2023-01-06T06:43:29.695Z,95976.25
2023-01-06T06:45:56.901Z,95986.19
2023-01-06T06:48:23.799Z,95982.16
2023-01-06T06:51:06.313Z,95984.28
2023-01-06T06:53:34.141Z,95977.31
2023-01-06T06:56:01.197Z,95983.50
2023-01-06T06:58:28.080Z,95979.41
2023-01-06T07:00:55.053Z,95976.72
2023-01-06T07:03:22.061Z,95974.03
2023-01-06T07:05:50.661Z,95983.19
2023-01-06T07:08:17.700Z,95974.88
2023-01-06T07:10:44.939Z,95974.03
2023-01-06T07:13:12.465Z,95975.13
2023-01-06T07:15:39.567Z,95972.72
2023-01-06T07:18:09.528Z,95971.88
2023-01-06T07:20:38.960Z,95972.72
2023-01-06T07:23:05.795Z,95967.31
2023-01-06T07:25:33.191Z,95971.09
2023-01-06T07:28:01.305Z,95972.72
2023-01-06T07:30:28.008Z,95967.56
2023-01-06T07:32:54.856Z,95976.47
2023-01-06T07:35:22.026Z,95968.91
2023-01-06T07:37:49.065Z,95968.13
2023-01-06T07:42:48.267Z,95965.97
2023-01-06T07:45:14.954Z,95963.84
2023-01-06T07:47:41.413Z,95959.78
2023-01-06T07:50:08.008Z,95960.34
2023-01-06T07:52:34.685Z,95960.91
2023-01-06T07:55:01.191Z,95962.22
2023-01-06T07:57:28.904Z,95956.31
2023-01-06T07:59:55.645Z,95952.28
2023-01-06T08:02:22.720Z,95954.44
2023-01-06T08:04:49.792Z,95952.53
2023-01-06T08:07:17.253Z,95948.22
2023-01-06T08:09:43.878Z,95953.09
2023-01-06T08:12:10.404Z,95955.22
2023-01-06T08:14:36.877Z,95955.50
2023-01-06T08:17:03.521Z,95956.59
2023-01-06T08:19:30.422Z,95955.78
2023-01-06T08:21:56.988Z,95963.03
2023-01-06T08:24:23.471Z,95952.53
2023-01-06T08:26:50.015Z,95953.56
2023-01-06T08:29:16.564Z,95961.66
2023-01-06T08:31:43.062Z,95957.34
2023-01-06T08:34:09.614Z,95964.59
2023-01-06T08:36:36.118Z,95964.06
2023-01-06T08:39:02.864Z,95957.84
2023-01-06T08:41:29.404Z,95965.91
2023-01-06T08:43:55.883Z,95965.09
2023-01-06T08:46:22.525Z,95958.09
2023-01-06T08:48:49.270Z,95956.16
2023-01-06T08:51:19.342Z,95949.69
2023-01-06T08:53:45.962Z,95952.06
2023-01-06T08:56:14.623Z,95941.28
2023-01-06T08:58:41.733Z,95942.56
2023-01-06T09:01:16.569Z,95948.78
2023-01-06T09:03:43.397Z,95949.28
2023-01-06T09:06:10.312Z,95957.59
2023-01-06T09:08:36.964Z,95956.22
2023-01-06T09:11:11.070Z,95962.09
2023-01-06T09:13:38.218Z,95964.50
2023-01-06T09:16:09.307Z,95966.59
2023-01-06T09:18:36.317Z,95979.50
2023-01-06T09:21:03.988Z,95972.97
2023-01-06T09:23:31.302Z,95978.84
2023-01-06T09:25:58.497Z,95972.06
2023-01-06T09:28:26.190Z,95976.06
2023-01-06T09:30:52.901Z,95979.25
2023-01-06T09:33:19.410Z,95978.09
2023-01-06T09:35:46.789Z,95982.94
2023-01-06T09:38:14.293Z,95984.19
2023-01-06T09:41:02.603Z,95989.56
2023-01-06T09:43:35.088Z,95991.13
2023-01-06T09:46:04.926Z,95990.50
2023-01-06T09:48:38.372Z,95995.00
2023-01-06T09:51:06.901Z,96003.59
2023-01-06T09:53:43.789Z,96004.28
2023-01-06T09:56:16.388Z,96007.19
2023-01-06T09:58:56.406Z,96002.22
2023-01-06T10:01:31.046Z,96000.00
2023-01-06T10:03:57.798Z,96002.06
2023-01-06T10:06:54.834Z,96000.91
2023-01-06T10:09:38.336Z,96005.16
2023-01-06T10:12:35.269Z,95993.41
2023-01-06T10:15:14.666Z,95994.66
2023-01-06T10:18:03.204Z,95990.25
2023-01-06T10:20:54.472Z,95993.94
2023-01-06T10:23:51.607Z,95986.78
2023-01-06T10:26:32.735Z,95982.63
2023-01-06T10:29:13.651Z,95971.63
2023-01-06T10:31:43.757Z,95974.19
2023-01-06T10:34:20.502Z,95966.19
2023-01-06T10:36:54.838Z,95959.31
2023-01-06T10:39:25.204Z,95958.63
2023-01-06T10:42:19.360Z,95958.00
2023-01-06T10:44:46.168Z,95948.38
2023-01-06T10:47:25.450Z,95951.81
2023-01-06T10:49:52.177Z,95958.16
2023-01-06T10:52:20.207Z,95962.88
2023-01-06T10:54:46.754Z,95959.69
2023-01-06T10:57:23.467Z,95958.38
2023-01-06T11:00:08.897Z,95961.19
2023-01-06T11:02:35.604Z,95959.41
2023-01-06T11:05:02.394Z,95969.56
2023-01-06T11:07:30.272Z,95967.25
2023-01-06T11:09:57.628Z,95950.09
2023-01-06T11:12:26.714Z,95957.81
2023-01-06T11:14:58.578Z,95947.63
2023-01-06T11:17:26.359Z,95951.56
2023-01-06T11:20:18.843Z,95942.94
2023-01-06T11:22:45.442Z,95949.44
2023-01-06T11:25:20.732Z,95950.66
2023-01-06T11:28:09.007Z,95948.63
2023-01-06T11:30:42.924Z,95946.59
2023-01-06T11:33:24.636Z,95948.28
2023-01-06T11:35:52.430Z,95950.25
2023-01-06T11:38:21.299Z,95946.63
2023-01-06T11:40:52.667Z,95944.31
2023-01-06T11:43:25.617Z,95942.59
2023-01-06T11:45:58.108Z,95943.78
2023-01-06T11:48:33.057Z,95932.00
2023-01-06T11:51:07.739Z,95939.84
2023-01-06T11:53:34.826Z,95930.75
2023-01-06T11:56:04.233Z,95933.34
2023-01-06T11:58:54.407Z,95920.28
2023-01-06T12:01:33.383Z,95927.78
2023-01-06T12:04:34.973Z,95928.91
2023-01-06T12:07:26.441Z,95919.84
2023-01-06T12:09:58.473Z,95919.69
2023-01-06T12:12:27.673Z,95913.81
2023-01-06T12:14:55.338Z,95916.72
2023-01-06T12:17:40.069Z,95910.66
2023-01-06T12:20:19.368Z,95907.63
2023-01-06T12:22:49.817Z,95905.41
2023-01-06T12:25:21.728Z,95903.97
2023-01-06T12:27:58.920Z,95907.19
2023-01-06T12:30:46.623Z,95909.59
2023-01-06T12:33:24.369Z,95899.22
2023-01-06T12:35:55.601Z,95899.69
2023-01-06T12:38:39.239Z,95890.59
2023-01-06T12:41:15.886Z,95892.22
2023-01-06T12:43:48.872Z,95895.56
2023-01-06T12:46:24.878Z,95885.31
2023-01-06T12:48:56.932Z,95895.09
2023-01-06T12:51:35.776Z,95897.19
2023-01-06T12:54:10.198Z,95895.75
2023-01-06T12:57:05.097Z,95898.16
2023-01-06T12:59:37.496Z,95907.78
2023-01-06T13:02:31.309Z,95910.38
2023-01-06T13:05:26.069Z,95896.94
2023-01-06T13:08:26.501Z,95894.56
2023-01-06T13:11:07.881Z,95895.53
2023-01-06T13:13:51.524Z,95886.44
2023-01-06T13:16:30.358Z,95888.53
2023-01-06T13:19:25.673Z,95889.00
2023-01-06T13:21:59.330Z,95892.41
2023-01-06T13:24:56.594Z,95891.09
2023-01-06T13:27:23.105Z,95883.09
2023-01-06T13:30:14.485Z,95881.19
2023-01-06T13:33:18.867Z,95882.28
2023-01-06T13:36:10.229Z,95893.97
2023-01-06T13:38:58.517Z,95882.94
2023-01-06T13:41:33.916Z,95891.75
2023-01-06T13:44:02.419Z,95891.25
2023-01-06T13:46:30.806Z,95893.97
2023-01-06T13:49:04.682Z,95888.38
2023-01-06T13:51:40.695Z,95901.97
2023-01-06T13:54:07.368Z,95894.94
2023-01-06T13:56:35.339Z,95899.09
2023-01-06T13:59:28.403Z,95898.44
2023-01-06T14:01:55.092Z,95903.09
2023-01-06T14:04:30.676Z,95899.38
2023-01-06T14:06:57.422Z,95914.13
2023-01-06T14:09:24.386Z,95916.31
2023-01-06T14:11:51.168Z,95920.97
2023-01-06T14:14:24.391Z,95927.53
2023-01-06T14:16:52.705Z,95920.97
2023-01-06T14:19:21.805Z,95932.34
2023-01-06T14:21:50.839Z,95927.41
2023-01-06T14:24:30.839Z,95929.81
2023-01-06T14:27:02.707Z,95934.94
2023-01-06T14:29:41.451Z,95936.38
2023-01-06T14:32:09.121Z,95925.47
2023-01-06T14:34:38.491Z,95925.47
2023-01-06T14:37:11.669Z,95924.19
2023-01-06T14:39:46.730Z,95924.19
2023-01-06T14:42:19.556Z,95931.88
2023-01-06T14:44:52.134Z,95929.91
2023-01-06T14:47:29.160Z,95929.91
2023-01-06T14:50:04.432Z,95933.56
2023-01-06T14:52:48.170Z,95928.75
2023-01-06T14:55:18.925Z,95933.72
2023-01-06T14:57:45.743Z,95932.72
2023-01-06T15:00:20.128Z,95923.09
2023-01-06T15:02:50.264Z,95932.19
2023-01-06T15:05:32.796Z,95935.97
2023-01-06T15:08:06.929Z,95930.38
2023-01-06T15:10:40.380Z,95929.38
2023-01-06T15:13:24.118Z,95924.56
2023-01-06T15:16:23.217Z,95929.66
2023-01-06T15:18:50.587Z,95928.34
2023-01-06T15:21:17.190Z,95937.63
2023-01-06T15:23:47.900Z,95931.19
2023-01-06T15:26:20.442Z,95933.22
2023-01-06T15:29:05.408Z,95934.16
2023-01-06T15:31:34.837Z,95932.38
2023-01-06T15:34:06.326Z,95923.53
2023-01-06T15:36:33.644Z,95919.53
2023-01-06T15:39:04.578Z,95919.63
2023-01-06T15:41:32.826Z,95920.56
2023-01-06T15:44:01.616Z,95929.00
2023-01-06T15:46:38.962Z,95927.19
2023-01-06T15:49:06.393Z,95929.72
2023-01-06T15:51:34.585Z,95930.84
2023-01-06T15:54:01.143Z,95935.41
2023-01-06T15:56:29.836Z,95934.47
2023-01-06T15:58:59.212Z,95940.22
2023-01-06T16:01:25.956Z,95929.66
2023-01-06T16:03:55.231Z,95945.13
2023-01-06T16:06:32.787Z,95946.56
2023-01-06T16:09:20.939Z,95947.66
2023-01-06T16:11:58.550Z,95948.78
2023-01-06T16:14:27.765Z,95936.13
2023-01-06T16:17:02.480Z,95951.31
2023-01-06T16:19:29.641Z,95953.22
2023-01-06T16:21:56.691Z,95954.63
2023-01-06T16:24:27.484Z,95953.13
2023-01-06T16:27:02.775Z,95946.41
2023-01-06T16:29:30.448Z,95954.84
2023-01-06T16:32:00.406Z,95958.19
2023-01-06T16:34:31.410Z,95966.81
2023-01-06T16:37:00.200Z,95966.50
2023-01-06T16:39:27.775Z,95975.44
2023-01-06T16:42:00.318Z,95979.91
2023-01-06T16:44:27.735Z,95981.00
2023-01-06T16:46:54.250Z,95973.97
2023-01-06T16:49:22.630Z,95979.72
2023-01-06T16:51:49.468Z,95974.59
2023-01-06T16:54:16.869Z,95982.72
2023-01-06T16:56:43.554Z,95981.13
2023-01-06T16:59:12.752Z,95982.50
2023-01-06T17:01:39.652Z,95976.28
2023-01-06T17:04:06.327Z,95980.09
2023-01-06T17:06:32.965Z,95992.56
2023-01-06T17:09:09.855Z,95989.38
2023-01-06T17:11:36.392Z,95998.31
2023-01-06T17:14:09.701Z,96004.34
2023-01-06T17:16:40.138Z,96006.25
2023-01-06T17:19:18.218Z,96002.22
2023-01-06T17:21:45.635Z,95998.13
2023-01-06T17:24:16.169Z,96002.22
2023-01-06T17:27:07.915Z,96005.78
2023-01-06T17:29:36.848Z,96001.13
2023-01-06T17:32:13.866Z,96005.78
2023-01-06T17:34:40.407Z,95994.91
2023-01-06T17:37:13.181Z,96011.19
2023-01-06T17:39:41.721Z,96000.34
2023-01-06T17:42:08.164Z,96013.38
2023-01-06T17:44:40.183Z,96009.38
2023-01-06T17:47:14.756Z,96017.31
2023-01-06T17:49:43.940Z,96018.72
2023-01-06T17:52:28.324Z,96019.63
2023-01-06T17:54:58.760Z,96022.94
2023-01-06T17:57:26.108Z,96022.44
2023-01-06T17:59:56.336Z,96026.06
2023-01-06T18:02:34.794Z,96030.97
2023-01-06T18:05:31.346Z,96031.25
2023-01-06T18:08:07.093Z,96036.47
2023-01-06T18:10:35.824Z,96036.47
2023-01-06T18:13:32.153Z,96040.63
2023-01-06T18:16:00.311Z,96039.50
2023-01-06T18:18:35.338Z,96043.34
2023-01-06T18:21:17.196Z,96036.88
2023-01-06T18:23:49.003Z,96044.72
2023-01-06T18:26:35.890Z,96046.13
2023-01-06T18:29:12.643Z,96047.22
2023-01-06T18:31:40.228Z,96057.50
2023-01-06T18:34:38.636Z,96050.75
2023-01-06T18:37:05.251Z,96047.72
2023-01-06T18:39:43.364Z,96049.13
2023-01-06T18:42:21.865Z,96051.34
2023-01-06T18:44:48.425Z,96052.13
2023-01-06T18:47:21.415Z,96052.72
2023-01-06T18:49:49.673Z,96053.34
2023-01-06T18:52:31.280Z,96050.78
2023-01-06T18:54:58.590Z,96048.81
2023-01-06T18:57:29.801Z,96048.59
2023-01-06T19:00:11.684Z,96057.00
2023-01-06T19:02:39.333Z,96053.50
2023-01-06T19:05:11.871Z,96052.19
2023-01-06T19:07:38.364Z,96060.31
2023-01-06T19:10:22.391Z,96052.47
2023-01-06T19:12:48.847Z,96054.69
2023-01-06T19:15:24.097Z,96052.56
2023-01-06T19:17:50.835Z,96039.31
2023-01-06T19:20:26.779Z,96038.00
2023-01-06T19:22:53.245Z,96037.78
2023-01-06T19:25:26.471Z,96044.63
2023-01-06T19:27:57.135Z,96047.81
2023-01-06T19:30:26.623Z,96045.13
2023-01-06T19:32:53.171Z,96050.25
2023-01-06T19:35:24.122Z,96041.31
2023-01-06T19:37:55.246Z,96036.38
2023-01-06T19:40:26.444Z,96045.84
2023-01-06T19:42:57.690Z,96040.13
2023-01-06T19:45:29.853Z,96039.00
2023-01-06T19:47:58.848Z,96036.00
2023-01-06T19:50:25.370Z,96035.41
2023-01-06T19:52:59.212Z,96041.63
2023-01-06T19:55:27.800Z,96039.75
2023-01-06T19:58:15.418Z,96037.03
2023-01-06T20:00:49.725Z,96034.31
2023-01-06T20:03:34.856Z,96034.81
2023-01-06T20:06:02.142Z,96034.81
2023-01-06T20:08:28.922Z,96034.03
2023-01-06T20:10:55.464Z,96039.44
2023-01-06T20:13:22.115Z,96034.81
2023-01-06T20:15:48.597Z,96026.97
2023-01-06T20:18:15.124Z,96035.91
2023-01-06T20:20:41.631Z,96031.31
2023-01-06T20:23:08.171Z,96039.44
2023-01-06T20:25:34.640Z,96032.09
2023-01-06T20:28:01.205Z,96032.09
2023-01-06T20:30:27.705Z,96025.88
2023-01-06T20:32:54.226Z,96023.97
2023-01-06T20:35:20.940Z,96024.78
2023-01-06T20:37:47.468Z,96020.47
2023-01-06T20:40:14.146Z,96023.19
2023-01-06T20:42:40.684Z,96011.31
2023-01-06T20:45:07.833Z,96014.31
2023-01-06T20:47:34.397Z,96015.72
2023-01-06T20:50:00.915Z,96007.88
2023-01-06T20:52:27.504Z,96016.09
2023-01-06T20:54:54.087Z,96014.78
2023-01-06T20:57:20.595Z,96015.09
2023-01-06T20:59:47.171Z,96011.88
2023-01-06T21:02:13.780Z,96005.13
2023-01-06T21:04:40.343Z,96009.22
2023-01-06T21:07:06.918Z,96012.75
2023-01-06T21:09:33.485Z,96011.44
2023-01-06T21:12:00.012Z,95998.97
2023-01-06T21:14:26.590Z,96002.81
2023-01-06T21:16:53.144Z,96007.41
2023-01-06T21:19:19.710Z,95991.97
2023-01-06T21:21:46.178Z,95995.75
2023-01-06T21:24:12.722Z,95993.06
2023-01-06T21:26:39.285Z,95990.34
2023-01-06T21:29:05.895Z,95996.56
2023-01-06T21:31:32.588Z,96001.97
2023-01-06T21:33:59.230Z,96000.91
2023-01-06T21:36:25.829Z,96002.81
2023-01-06T21:38:52.304Z,95999.81
2023-01-06T21:41:18.808Z,96001.41
2023-01-06T21:43:45.324Z,95996.78
2023-01-06T21:46:11.830Z,96000.00
2023-01-06T21:48:38.443Z,95998.09
2023-01-06T21:51:05.093Z,95994.28
2023-01-06T21:53:32.228Z,96000.22
2023-01-06T21:55:59.347Z,95996.41
2023-01-06T21:58:25.956Z,95991.00
2023-01-06T22:00:52.524Z,95990.69
2023-01-06T22:03:19.141Z,95996.63
2023-01-06T22:05:46.302Z,95998.22
2023-01-06T22:08:13.221Z,96002.53
2023-01-06T22:10:42.589Z,96001.16
2023-01-06T22:13:12.210Z,95988.38
2023-01-06T22:15:39.150Z,95996.22
2023-01-06T22:18:07.363Z,96001.66
2023-01-06T22:20:34.335Z,95990.50
2023-01-06T22:23:03.576Z,95997.53
2023-01-06T22:25:30.115Z,95987.78
2023-01-06T22:27:56.869Z,95985.06
2023-01-06T22:30:23.417Z,95987.00
2023-01-06T22:32:49.935Z,95993.22
2023-01-06T22:35:17.517Z,95986.50
2023-01-06T22:37:44.630Z,95990.28
2023-01-06T22:40:13.486Z,95987.59
2023-01-06T22:42:40.281Z,95989.22
2023-01-06T22:45:08.117Z,95984.59
2023-01-06T22:47:34.715Z,95986.19
2023-01-06T22:50:01.303Z,95986.19
2023-01-06T22:52:28.514Z,95981.56
2023-01-06T22:54:55.045Z,95980.47
2023-01-06T22:57:21.572Z,95976.16
2023-01-06T22:59:48.125Z,95980.47
2023-01-06T23:02:14.824Z,95977.78
2023-01-06T23:04:41.440Z,95979.66
2023-01-06T23:07:08.013Z,95976.94
2023-01-06T23:09:34.632Z,95973.13
2023-01-06T23:12:01.080Z,95973.94
2023-01-06T23:14:27.684Z,95972.84
2023-01-06T23:16:54.206Z,95969.34
2023-01-06T23:19:20.687Z,95963.91
2023-01-06T23:21:47.193Z,95960.91
2023-01-06T23:24:14.010Z,95966.31
2023-01-06T23:26:43.343Z,95967.63
2023-01-06T23:29:10.617Z,95965.69
2023-01-06T23:31:40.270Z,95966.53
2023-01-06T23:34:09.325Z,95968.13
2023-01-06T23:36:36.510Z,95975.16
2023-01-06T23:39:05.130Z,95970.81
2023-01-06T23:41:34.053Z,95967.31
2023-01-06T23:44:01.351Z,95963.81
2023-01-06T23:46:31.378Z,95964.13
2023-01-06T23:48:58.309Z,95966.00
2023-01-06T23:51:26.050Z,95959.78
2023-01-06T23:53:53.127Z,95963.09
2023-01-06T23:56:22.009Z,95963.91
2023-01-06T23:58:51.546Z,95956.88
